ESNN/SDL METAR and TAF weather

Enter ICAO airport designator
Station Type Date Time Source
ESNN METAR 2020/08/15 10:20 UTC NOAA

ESNN 151020Z AUTO 31008KT 260V350 9999 NCD 24/06 Q1013


Station Type Date Time Source
ESNN Decoded METAR 2020/08/15 10:20 UTC NOAA

Sundsvall-Harnosand Flygplats, Sweden (ESNN) 62-32N 017-27E 10M
Aug 15, 2020 - 06:20 AM EDT / 2020.08.15 1020 UTC
Wind: from the NW (310 degrees) at 9 MPH (8 KT) (direction variable):0
Visibility: greater than 7 mile(s):0
Temperature: 75 F (24 C)
Dew Point: 42 F (6 C)
Relative Humidity: 31%
Pressure (altimeter): 29.91 in. Hg (1013 hPa)
ob: ESNN 151020Z AUTO 31008KT 260V350 9999 NCD 24/06 Q1013
cycle: 10

Station Type Date Time Source
ESNN TAF 2016/05/29 09:33 UTC NOAA

TAF TAF ESNN 290830Z 2909/3018 07006KT 9999 SCT045
BECMG 2913/2915 14010KT

Example: see airport list